createdAt,value
2022-10-05T03:38:24.192Z,4.82
2022-10-05T03:41:54.805Z,4.03
2022-10-05T03:45:02.206Z,4.10
2022-10-05T03:48:13.630Z,5.62
2022-10-05T03:51:42.771Z,4.85
2022-10-05T03:54:56.049Z,3.62
2022-10-05T03:58:06.657Z,3.60
2022-10-05T04:01:16.107Z,4.03
2022-10-05T04:04:26.595Z,3.60
2022-10-05T04:07:38.063Z,4.07
2022-10-05T04:10:51.516Z,3.85
2022-10-05T04:14:17.703Z,3.25
2022-10-05T04:17:34.707Z,4.10
2022-10-05T04:20:44.264Z,3.12
2022-10-05T04:24:12.059Z,3.17
2022-10-05T04:27:20.468Z,2.90
2022-10-05T04:30:23.502Z,3.62
2022-10-05T04:33:27.576Z,3.30
2022-10-05T04:36:41.043Z,3.45
2022-10-05T04:40:05.946Z,3.53
2022-10-05T04:43:31.022Z,3.55
2022-10-05T04:46:48.861Z,4.85
2022-10-05T04:50:21.163Z,4.47
2022-10-05T04:53:57.434Z,4.70
2022-10-05T04:57:03.441Z,5.30
2022-10-05T05:00:19.893Z,5.45
2022-10-05T05:03:45.106Z,6.95
2022-10-05T05:07:09.122Z,5.72
2022-10-05T05:10:32.688Z,5.87
2022-10-05T05:13:54.700Z,7.10
2022-10-05T05:17:14.796Z,6.85
2022-10-05T05:20:25.933Z,6.28
2022-10-05T05:24:00.953Z,6.47
2022-10-05T05:27:31.459Z,6.53
2022-10-05T05:31:05.470Z,6.80
2022-10-05T05:34:36.571Z,7.07
2022-10-05T05:37:52.078Z,5.65
2022-10-05T05:41:33.106Z,8.35
2022-10-05T05:44:47.920Z,6.45
2022-10-05T05:47:54.316Z,5.78
2022-10-05T05:51:10.721Z,6.97
2022-10-05T05:54:16.259Z,6.28
2022-10-05T05:57:28.000Z,6.50
2022-10-05T06:00:37.858Z,7.15
2022-10-05T06:03:51.162Z,6.32
2022-10-05T06:06:57.627Z,6.95
2022-10-05T06:10:32.552Z,7.03
2022-10-05T06:13:39.740Z,7.12
2022-10-05T06:16:56.307Z,7.55
2022-10-05T06:20:07.987Z,6.85
2022-10-05T06:23:20.524Z,6.90
2022-10-05T06:26:59.611Z,6.80
2022-10-05T06:30:11.447Z,5.85
2022-10-05T06:33:21.935Z,7.53
2022-10-05T06:36:40.306Z,5.43
2022-10-05T06:40:19.499Z,5.80
2022-10-05T06:43:47.745Z,6.70
2022-10-05T06:47:22.378Z,6.10
2022-10-05T06:50:34.346Z,5.43
2022-10-05T06:54:04.587Z,5.72
2022-10-05T06:57:46.293Z,7.03
2022-10-05T07:00:54.174Z,6.35
2022-10-05T07:04:14.531Z,8.65
2022-10-05T07:07:27.295Z,7.07
2022-10-05T07:10:49.312Z,5.93
2022-10-05T07:14:03.915Z,7.57
2022-10-05T07:21:16.911Z,8.20
2022-10-05T07:24:33.318Z,7.57
2022-10-05T07:28:00.561Z,6.25
2022-10-05T07:31:19.819Z,7.87
2022-10-05T07:34:31.313Z,6.75
2022-10-05T07:38:00.088Z,5.75
2022-10-05T07:41:08.038Z,6.75
2022-10-05T07:44:30.975Z,8.05
2022-10-05T07:47:43.542Z,8.82
2022-10-05T07:50:56.444Z,9.38
2022-10-05T07:54:10.099Z,10.55
2022-10-05T07:57:35.193Z,9.75
2022-10-05T08:01:00.658Z,9.13
2022-10-05T08:04:30.873Z,10.77
2022-10-05T08:07:35.924Z,10.98
2022-10-05T08:11:00.984Z,11.18
2022-10-05T08:14:33.535Z,12.15
2022-10-05T08:17:58.285Z,10.35
2022-10-05T08:21:01.468Z,11.27
2022-10-05T08:27:48.718Z,10.05
2022-10-05T08:31:01.053Z,9.48
2022-10-05T08:34:20.982Z,9.07
2022-10-05T08:37:29.877Z,9.18
2022-10-05T08:41:15.363Z,10.00
2022-10-05T08:44:55.518Z,10.90
2022-10-05T08:48:25.654Z,9.55
2022-10-05T08:51:42.541Z,13.80
2022-10-05T08:55:12.751Z,10.88
2022-10-05T08:58:53.375Z,9.38
2022-10-05T09:01:59.208Z,9.27
2022-10-05T09:05:40.135Z,8.40
2022-10-05T09:09:19.101Z,7.40
2022-10-05T09:12:46.310Z,8.68
2022-10-05T09:16:07.407Z,6.47
2022-10-05T09:19:43.081Z,7.28
2022-10-05T09:23:29.694Z,8.27
2022-10-05T09:27:04.575Z,7.25
2022-10-05T09:30:28.388Z,7.72
2022-10-05T09:34:08.810Z,6.85
2022-10-05T09:37:23.137Z,6.55
2022-10-05T09:40:41.632Z,5.60
2022-10-05T09:44:22.027Z,6.15
2022-10-05T09:47:59.102Z,6.30
2022-10-05T09:51:19.831Z,6.68
2022-10-05T09:54:37.441Z,6.03
2022-10-05T09:58:02.525Z,6.50
2022-10-05T10:01:39.273Z,5.37
2022-10-05T10:05:16.006Z,5.15
2022-10-05T10:08:34.518Z,5.22
2022-10-05T10:11:49.417Z,7.20
2022-10-05T10:15:29.735Z,6.80
2022-10-05T10:18:42.742Z,7.25
2022-10-05T10:21:57.310Z,7.87
2022-10-05T10:25:21.238Z,6.65
2022-10-05T10:28:45.109Z,5.95
2022-10-05T10:32:26.328Z,5.75
2022-10-05T10:35:40.607Z,5.62
2022-10-05T10:38:59.867Z,6.03
2022-10-05T10:42:29.807Z,5.18
2022-10-05T10:45:54.295Z,6.07
2022-10-05T10:49:19.725Z,4.62
2022-10-05T10:52:56.350Z,5.18
2022-10-05T10:56:29.244Z,5.85
2022-10-05T11:00:05.685Z,6.18
2022-10-05T11:03:32.688Z,5.68
2022-10-05T11:06:54.154Z,6.10
2022-10-05T11:10:37.314Z,4.70
2022-10-05T11:14:02.821Z,5.18
2022-10-05T11:17:15.474Z,6.25
2022-10-05T11:20:49.434Z,6.78
2022-10-05T11:24:13.700Z,8.52
2022-10-05T11:28:03.885Z,6.70
2022-10-05T11:31:23.790Z,7.22
2022-10-05T11:34:36.995Z,8.18
2022-10-05T11:37:57.681Z,7.55
2022-10-05T11:41:27.726Z,6.30
2022-10-05T11:44:43.006Z,7.82
2022-10-05T11:47:45.714Z,6.90
2022-10-05T11:50:51.176Z,7.32
2022-10-05T11:54:09.660Z,5.82
2022-10-05T11:57:26.132Z,6.70
2022-10-05T12:00:50.136Z,6.47
2022-10-05T12:04:23.880Z,6.20
2022-10-05T12:07:33.453Z,6.40
2022-10-05T12:10:52.240Z,8.23
2022-10-05T12:14:06.717Z,5.78
2022-10-05T12:17:41.656Z,5.62
2022-10-05T12:21:07.348Z,4.32
2022-10-05T12:24:26.948Z,4.47
2022-10-05T12:27:36.774Z,6.20
2022-10-05T12:31:10.020Z,5.28
2022-10-05T12:34:20.985Z,4.20
2022-10-05T12:37:53.457Z,4.32
2022-10-05T12:41:15.004Z,4.72
2022-10-05T12:44:55.157Z,4.15
2022-10-05T12:48:28.252Z,4.90
2022-10-05T12:51:41.855Z,4.12
2022-10-05T12:58:06.468Z,3.95
2022-10-05T13:01:14.978Z,2.87
2022-10-05T13:04:21.797Z,3.00
2022-10-05T13:07:42.560Z,2.30
2022-10-05T13:10:53.645Z,2.40
2022-10-05T13:14:16.439Z,2.50
2022-10-05T13:17:46.808Z,2.60
2022-10-05T13:20:57.804Z,2.50
2022-10-05T13:24:33.990Z,2.80
2022-10-05T13:28:00.759Z,2.87
2022-10-05T13:31:14.899Z,2.45
2022-10-05T13:34:43.427Z,2.87
2022-10-05T13:38:36.269Z,2.05
2022-10-05T13:42:26.016Z,2.62
2022-10-05T13:45:41.180Z,2.22
2022-10-05T13:48:59.986Z,2.50
2022-10-05T13:52:08.762Z,2.65
2022-10-05T13:55:21.906Z,2.85
2022-10-05T13:58:52.713Z,3.15
2022-10-05T14:02:04.903Z,2.70
2022-10-05T14:05:17.824Z,2.87
2022-10-05T14:08:23.115Z,3.08
2022-10-05T14:11:35.137Z,2.75
2022-10-05T14:14:52.806Z,2.83
2022-10-05T14:17:55.914Z,2.80
2022-10-05T14:21:03.015Z,3.05
2022-10-05T14:24:43.654Z,3.33
2022-10-05T14:28:25.818Z,2.67
2022-10-05T14:31:37.475Z,4.35
2022-10-05T14:34:46.111Z,3.50
2022-10-05T14:38:07.923Z,3.17
2022-10-05T14:41:19.052Z,3.28
2022-10-05T14:47:45.481Z,3.30
2022-10-05T14:51:03.296Z,2.55
2022-10-05T14:54:46.373Z,5.00
2022-10-05T14:58:04.721Z,2.53
2022-10-05T15:01:31.462Z,3.10
2022-10-05T15:05:14.315Z,3.20
2022-10-05T15:08:27.501Z,3.15
2022-10-05T15:11:38.328Z,3.30
2022-10-05T15:14:44.233Z,3.50
2022-10-05T15:17:54.374Z,3.12
2022-10-05T15:21:24.788Z,3.25
2022-10-05T15:24:41.273Z,2.78
2022-10-05T15:28:06.598Z,3.70
2022-10-05T15:31:48.852Z,2.95
2022-10-05T15:35:22.277Z,2.62
2022-10-05T15:38:28.567Z,3.10
2022-10-05T15:41:37.000Z,2.35
2022-10-05T15:45:06.376Z,3.40
2022-10-05T15:48:41.065Z,3.97
